Time;durP1;ratioP1;P1;durP2;ratioP2;P2;SDS_P1;SDS_P2;PMS_P1;PMS_P2;Temp;Humidity;BMP_temperature;BMP_pressure;BME280_temperature;BME280_humidity;BME280_pressure;Samples;Min_cycle;Max_cycle;Signal;HPM_P1;HPM_P2
2021/07/23 00:00:53;;;;;;;14.15;10.32;;;;;;;;;;5011937;28;20025;-69
2021/07/23 00:03:20;;;;;;;13.85;10.20;;;;;;;;;;5013147;28;20022;-69
2021/07/23 00:05:46;;;;;;;15.05;10.45;;;;;;;;;;5013421;28;20104;-68
2021/07/23 00:08:13;;;;;;;13.65;10.60;;;;;;;;;;5013182;28;20061;-69
2021/07/23 00:10:39;;;;;;;16.90;10.73;;;;;;;;;;5013123;28;20048;-68
2021/07/23 00:13:05;;;;;;;18.40;10.25;;;;;;;;;;5011546;28;20245;-69
2021/07/23 00:15:31;;;;;;;14.88;10.02;;;;;;;;;;5013299;28;20101;-68
2021/07/23 00:17:58;;;;;;;14.52;9.90;;;;;;;;;;5011784;28;20021;-68
2021/07/23 00:20:25;;;;;;;14.00;9.65;;;;;;;;;;5013042;28;20491;-69
2021/07/23 00:22:51;;;;;;;15.65;10.15;;;;;;;;;;5012954;28;20117;-70
2021/07/23 00:25:42;;;;;;;16.38;10.52;;;;;;;;;;5012977;28;20033;-69
2021/07/23 00:28:08;;;;;;;20.98;10.63;;;;;;;;;;5012635;28;20046;-69
2021/07/23 00:30:34;;;;;;;14.73;10.48;;;;;;;;;;5011697;28;20030;-69
2021/07/23 00:33:01;;;;;;;14.25;10.13;;;;;;;;;;5012877;28;20049;-70
2021/07/23 00:35:28;;;;;;;14.77;11.35;;;;;;;;;;5012912;28;20026;-69
2021/07/23 00:37:56;;;;;;;15.57;10.55;;;;;;;;;;5012952;28;20032;-70
2021/07/23 00:40:23;;;;;;;14.27;10.98;;;;;;;;;;5012925;28;20065;-69
2021/07/23 00:42:49;;;;;;;15.23;10.50;;;;;;;;;;5012867;28;20048;-70
2021/07/23 00:45:16;;;;;;;15.02;10.38;;;;;;;;;;5011526;28;20026;-69
2021/07/23 00:47:44;;;;;;;13.52;11.10;;;;;;;;;;5013249;28;20030;-69
2021/07/23 00:50:11;;;;;;;13.00;10.70;;;;;;;;;;5016435;28;20022;-68
2021/07/23 00:52:38;;;;;;;22.00;12.23;;;;;;;;;;5016427;28;20029;-69
2021/07/23 00:55:04;;;;;;;15.73;11.18;;;;;;;;;;5016369;28;20079;-70
2021/07/23 00:57:31;;;;;;;20.25;11.38;;;;;;;;;;5016297;28;20049;-69
2021/07/23 00:59:58;;;;;;;16.25;11.30;;;;;;;;;;5014919;28;20034;-68
2021/07/23 01:02:24;;;;;;;18.33;11.27;;;;;;;;;;5014956;28;20534;-68
2021/07/23 01:04:50;;;;;;;18.80;11.45;;;;;;;;;;5016112;28;20489;-70
2021/07/23 01:07:17;;;;;;;15.13;10.52;;;;;;;;;;5016133;28;20026;-68
2021/07/23 01:09:43;;;;;;;12.00;10.65;;;;;;;;;;5016075;28;20033;-68
2021/07/23 01:12:10;;;;;;;13.48;10.27;;;;;;;;;;5015796;28;20101;-68
2021/07/23 01:14:37;;;;;;;15.50;11.35;;;;;;;;;;5015980;28;20030;-67
2021/07/23 01:17:03;;;;;;;14.30;10.27;;;;;;;;;;5015954;28;20021;-67
2021/07/23 01:19:34;;;;;;;14.07;10.27;;;;;;;;;;5015904;28;20049;-69
2021/07/23 01:22:00;;;;;;;17.25;10.70;;;;;;;;;;5014568;28;20018;-69
2021/07/23 01:24:27;;;;;;;14.90;11.15;;;;;;;;;;5015703;28;20038;-69
2021/07/23 01:26:54;;;;;;;18.13;11.55;;;;;;;;;;5015553;28;20033;-67
2021/07/23 01:29:20;;;;;;;16.48;10.93;;;;;;;;;;5013940;28;20402;-67
2021/07/23 01:31:46;;;;;;;14.00;10.82;;;;;;;;;;5014353;28;20034;-66
2021/07/23 01:34:12;;;;;;;18.20;12.40;;;;;;;;;;5014298;28;20042;-70
2021/07/23 01:36:39;;;;;;;15.65;11.40;;;;;;;;;;5015566;28;20061;-69
2021/07/23 01:39:05;;;;;;;17.77;12.60;;;;;;;;;;5015253;28;20506;-67
2021/07/23 01:41:33;;;;;;;15.45;11.25;;;;;;;;;;5015485;28;20029;-68
2021/07/23 01:43:59;;;;;;;17.98;10.93;;;;;;;;;;5015461;28;20033;-68
2021/07/23 01:46:25;;;;;;;17.17;11.27;;;;;;;;;;5015384;28;20108;-68
2021/07/23 01:48:51;;;;;;;16.25;11.25;;;;;;;;;;5015354;28;20033;-69
2021/07/23 01:51:18;;;;;;;23.65;12.27;;;;;;;;;;5014052;28;20072;-70
2021/07/23 01:53:44;;;;;;;13.68;9.77;;;;;;;;;;5015182;28;20033;-67
2021/07/23 01:56:10;;;;;;;12.52;10.48;;;;;;;;;;5015204;28;20018;-70
2021/07/23 01:58:36;;;;;;;16.13;11.07;;;;;;;;;;5015131;28;20038;-68
2021/07/23 02:01:03;;;;;;;13.98;10.18;;;;;;;;;;5014430;28;20033;-69
2021/07/23 02:03:29;;;;;;;15.95;10.48;;;;;;;;;;5014997;28;20045;-68
2021/07/23 02:05:55;;;;;;;15.75;10.45;;;;;;;;;;5013359;28;20117;-68
2021/07/23 02:08:21;;;;;;;17.90;11.05;;;;;;;;;;5014938;28;20028;-70
2021/07/23 02:10:47;;;;;;;21.15;10.30;;;;;;;;;;5014904;28;20097;-70
2021/07/23 02:13:13;;;;;;;16.83;10.05;;;;;;;;;;5013185;28;20117;-70
2021/07/23 02:15:41;;;;;;;21.23;10.40;;;;;;;;;;5014846;28;20105;-70
2021/07/23 02:18:07;;;;;;;15.80;11.27;;;;;;;;;;5012990;28;20471;-68
2021/07/23 02:20:34;;;;;;;15.48;11.48;;;;;;;;;;5034083;28;20109;-68
2021/07/23 02:23:00;;;;;;;14.80;10.60;;;;;;;;;;5034408;28;20037;-69
2021/07/23 02:25:26;;;;;;;13.85;10.55;;;;;;;;;;5034080;28;20053;-67
2021/07/23 02:27:52;;;;;;;17.42;10.98;;;;;;;;;;5034066;28;20053;-68
2021/07/23 02:30:18;;;;;;;14.35;11.43;;;;;;;;;;5033043;28;20381;-68
2021/07/23 02:32:45;;;;;;;12.38;10.68;;;;;;;;;;5034307;28;20096;-68
2021/07/23 02:35:11;;;;;;;15.40;11.57;;;;;;;;;;5034248;28;20048;-69
2021/07/23 02:37:38;;;;;;;17.08;11.07;;;;;;;;;;5034175;28;20025;-69
2021/07/23 02:40:05;;;;;;;23.17;12.52;;;;;;;;;;5034129;28;20033;-68
2021/07/23 02:42:31;;;;;;;22.80;10.65;;;;;;;;;;5032830;28;20516;-70
2021/07/23 02:44:57;;;;;;;14.07;10.82;;;;;;;;;;5034297;28;20416;-70
2021/07/23 02:47:24;;;;;;;16.10;10.93;;;;;;;;;;5034268;28;20108;-69
2021/07/23 02:49:50;;;;;;;17.80;11.20;;;;;;;;;;5032608;28;20029;-68
2021/07/23 02:52:16;;;;;;;14.07;10.05;;;;;;;;;;5032628;28;20134;-70
2021/07/23 02:54:42;;;;;;;14.15;10.85;;;;;;;;;;5033586;28;20036;-70
2021/07/23 02:57:08;;;;;;;15.55;10.90;;;;;;;;;;5033792;28;20488;-70
2021/07/23 02:59:35;;;;;;;13.52;10.90;;;;;;;;;;5033503;28;20382;-68
2021/07/23 03:02:01;;;;;;;15.85;10.57;;;;;;;;;;5032364;28;20037;-69
2021/07/23 03:04:27;;;;;;;19.30;10.85;;;;;;;;;;5033603;28;20029;-69
2021/07/23 03:06:53;;;;;;;12.75;9.77;;;;;;;;;;5033638;28;20025;-70
2021/07/23 03:09:20;;;;;;;15.73;10.40;;;;;;;;;;5033240;28;20017;-68
2021/07/23 03:11:46;;;;;;;16.33;10.13;;;;;;;;;;5032281;28;20041;-68
2021/07/23 03:14:12;;;;;;;14.48;10.45;;;;;;;;;;5032810;28;20521;-69
2021/07/23 03:16:38;;;;;;;12.82;9.95;;;;;;;;;;5033077;28;20022;-69
2021/07/23 03:19:05;;;;;;;15.68;9.80;;;;;;;;;;5031738;28;20358;-70
2021/07/23 03:21:31;;;;;;;16.23;9.95;;;;;;;;;;5033279;28;20460;-69
2021/07/23 03:23:57;;;;;;;12.38;9.95;;;;;;;;;;5033182;28;20107;-70
2021/07/23 03:26:23;;;;;;;12.32;9.77;;;;;;;;;;5032955;28;20049;-70
2021/07/23 03:28:49;;;;;;;11.75;10.35;;;;;;;;;;5028576;28;20505;-71
2021/07/23 03:31:15;;;;;;;15.90;11.13;;;;;;;;;;5031612;28;20014;-70
2021/07/23 03:33:42;;;;;;;18.67;10.27;;;;;;;;;;5032325;28;20092;-70
2021/07/23 03:36:08;;;;;;;15.10;10.00;;;;;;;;;;5035636;28;20026;-68
2021/07/23 03:38:34;;;;;;;17.38;11.40;;;;;;;;;;5032911;28;20540;-69
2021/07/23 03:41:00;;;;;;;15.45;10.68;;;;;;;;;;5033133;28;20036;-67
2021/07/23 03:43:27;;;;;;;26.65;12.15;;;;;;;;;;5033071;28;20038;-70
2021/07/23 03:45:54;;;;;;;19.92;11.40;;;;;;;;;;5031769;28;20029;-69
2021/07/23 03:48:20;;;;;;;21.58;11.90;;;;;;;;;;5031817;28;20022;-67
2021/07/23 03:50:48;;;;;;;23.38;12.32;;;;;;;;;;5042637;28;20381;-70
2021/07/23 03:53:14;;;;;;;25.15;12.10;;;;;;;;;;5052919;28;20064;-67
2021/07/23 03:55:40;;;;;;;19.30;10.85;;;;;;;;;;5052881;28;20023;-68
2021/07/23 03:58:07;;;;;;;21.23;11.38;;;;;;;;;;5052854;28;20104;-70
2021/07/23 04:00:33;;;;;;;23.73;10.50;;;;;;;;;;5051506;28;20477;-68
2021/07/23 04:02:59;;;;;;;17.17;12.23;;;;;;;;;;5051489;28;20091;-68
2021/07/23 04:05:25;;;;;;;14.77;11.10;;;;;;;;;;5053086;28;20115;-70
2021/07/23 04:07:51;;;;;;;17.85;11.27;;;;;;;;;;5053094;28;20100;-70
2021/07/23 04:10:18;;;;;;;20.05;10.95;;;;;;;;;;5052814;28;20059;-69
2021/07/23 04:12:44;;;;;;;17.13;11.48;;;;;;;;;;5052752;28;20059;-70
2021/07/23 04:15:11;;;;;;;17.60;11.80;;;;;;;;;;5051477;28;20119;-71
2021/07/23 04:17:37;;;;;;;13.15;10.68;;;;;;;;;;5052717;28;20048;-70
2021/07/23 04:20:04;;;;;;;26.30;11.30;;;;;;;;;;5052973;28;20415;-69
2021/07/23 04:22:30;;;;;;;19.27;12.20;;;;;;;;;;5051402;28;20032;-68
2021/07/23 04:24:57;;;;;;;19.02;11.43;;;;;;;;;;5056432;28;20469;-68
2021/07/23 04:27:23;;;;;;;18.95;12.38;;;;;;;;;;5056271;28;20119;-67
2021/07/23 04:29:49;;;;;;;18.48;12.30;;;;;;;;;;5056431;28;20055;-69
2021/07/23 04:32:15;;;;;;;19.92;12.98;;;;;;;;;;5055089;28;20093;-67
2021/07/23 04:34:42;;;;;;;17.38;12.25;;;;;;;;;;5035035;28;20025;-69
2021/07/23 04:37:08;;;;;;;23.55;13.35;;;;;;;;;;5036404;28;20492;-69
2021/07/23 04:39:34;;;;;;;21.27;12.88;;;;;;;;;;5035107;28;20108;-67
2021/07/23 04:42:03;;;;;;;21.67;14.18;;;;;;;;;;5036404;28;20029;-69
2021/07/23 04:44:30;;;;;;;24.60;14.50;;;;;;;;;;5036044;28;20097;-66
2021/07/23 04:46:59;;;;;;;18.35;13.63;;;;;;;;;;5036006;28;20385;-69
2021/07/23 04:49:25;;;;;;;17.00;12.95;;;;;;;;;;5036249;28;20037;-69
2021/07/23 04:51:51;;;;;;;22.00;13.73;;;;;;;;;;5036185;28;20026;-69
2021/07/23 04:54:18;;;;;;;18.65;12.70;;;;;;;;;;5034833;28;20038;-68
2021/07/23 04:56:46;;;;;;;19.23;13.23;;;;;;;;;;5036047;28;20026;-69
2021/07/23 04:59:12;;;;;;;20.05;13.25;;;;;;;;;;5038632;28;20030;-68
2021/07/23 05:01:38;;;;;;;18.15;13.60;;;;;;;;;;5035762;28;20025;-70
2021/07/23 05:04:05;;;;;;;17.83;14.98;;;;;;;;;;5035642;28;20025;-70
2021/07/23 05:06:31;;;;;;;18.70;16.33;;;;;;;;;;5034676;28;20112;-68
2021/07/23 05:08:57;;;;;;;21.52;16.95;;;;;;;;;;5035912;28;20104;-69
2021/07/23 05:11:23;;;;;;;19.63;14.73;;;;;;;;;;5035829;28;20025;-69
2021/07/23 05:13:49;;;;;;;18.02;14.88;;;;;;;;;;5035846;28;20025;-69
2021/07/23 05:16:16;;;;;;;19.35;15.35;;;;;;;;;;5036063;28;20356;-68
2021/07/23 05:18:42;;;;;;;16.80;13.52;;;;;;;;;;5035705;28;20021;-69
2021/07/23 05:21:10;;;;;;;18.55;12.65;;;;;;;;;;5035614;28;20092;-70
2021/07/23 05:23:37;;;;;;;15.07;11.90;;;;;;;;;;5035485;28;20485;-70
2021/07/23 05:26:05;;;;;;;13.77;11.45;;;;;;;;;;5034256;28;20386;-70
2021/07/23 05:28:32;;;;;;;19.90;10.88;;;;;;;;;;5033962;28;20049;-69
2021/07/23 05:30:59;;;;;;;13.50;10.35;;;;;;;;;;5034319;28;20032;-69
2021/07/23 05:33:26;;;;;;;13.30;10.25;;;;;;;;;;5034105;28;20079;-69
2021/07/23 05:35:52;;;;;;;14.35;10.63;;;;;;;;;;5034284;28;20049;-69
2021/07/23 05:38:18;;;;;;;15.60;11.23;;;;;;;;;;5035435;28;20091;-70
2021/07/23 05:40:44;;;;;;;15.25;11.27;;;;;;;;;;5035232;28;20021;-69
2021/07/23 05:43:13;;;;;;;17.00;10.63;;;;;;;;;;5034879;28;20053;-69
2021/07/23 05:45:39;;;;;;;13.23;10.57;;;;;;;;;;5033884;28;20037;-72
2021/07/23 05:48:06;;;;;;;18.88;11.20;;;;;;;;;;5035052;28;20116;-71
2021/07/23 05:50:32;;;;;;;16.88;10.95;;;;;;;;;;5034897;28;20171;-69
2021/07/23 05:52:59;;;;;;;16.85;10.60;;;;;;;;;;5034902;28;20047;-72
2021/07/23 05:55:25;;;;;;;16.40;10.93;;;;;;;;;;5033341;28;20457;-70
2021/07/23 05:57:51;;;;;;;16.65;10.48;;;;;;;;;;5034911;28;20030;-69
2021/07/23 06:00:17;;;;;;;17.40;10.35;;;;;;;;;;5035113;28;20024;-70
2021/07/23 06:02:44;;;;;;;21.77;10.50;;;;;;;;;;5034725;28;20113;-69
2021/07/23 06:05:10;;;;;;;20.30;9.75;;;;;;;;;;5034869;28;20187;-68
2021/07/23 06:07:38;;;;;;;28.98;11.23;;;;;;;;;;5034714;28;20022;-70
2021/07/23 06:10:04;;;;;;;27.92;11.43;;;;;;;;;;5033091;28;20033;-69
2021/07/23 06:12:30;;;;;;;16.33;9.07;;;;;;;;;;5033208;28;20026;-69
2021/07/23 06:14:59;;;;;;;18.55;9.05;;;;;;;;;;5033454;28;20033;-70
2021/07/23 06:17:25;;;;;;;19.30;10.73;;;;;;;;;;5032277;28;20036;-71
2021/07/23 06:19:51;;;;;;;29.75;10.70;;;;;;;;;;5034772;28;20061;-67
2021/07/23 06:22:19;;;;;;;20.73;10.25;;;;;;;;;;5034436;28;20021;-68
2021/07/23 06:24:45;;;;;;;14.82;9.70;;;;;;;;;;5032748;28;20129;-71
2021/07/23 06:27:12;;;;;;;18.15;10.32;;;;;;;;;;5033349;28;20151;-70
2021/07/23 06:29:38;;;;;;;15.43;9.35;;;;;;;;;;5034117;28;20369;-70
2021/07/23 06:32:04;;;;;;;16.17;10.05;;;;;;;;;;5034574;28;20032;-69
2021/07/23 06:34:30;;;;;;;18.77;10.05;;;;;;;;;;5033920;28;20416;-69
2021/07/23 06:36:57;;;;;;;14.65;9.50;;;;;;;;;;5032802;28;20448;-69
2021/07/23 06:39:23;;;;;;;16.67;9.70;;;;;;;;;;5034118;28;20033;-67
2021/07/23 06:41:49;;;;;;;16.48;9.02;;;;;;;;;;5032704;28;20489;-69
2021/07/23 06:44:15;;;;;;;11.68;8.50;;;;;;;;;;5033547;28;20033;-69
2021/07/23 06:46:41;;;;;;;11.57;9.15;;;;;;;;;;5033487;28;20486;-68
2021/07/23 06:49:08;;;;;;;13.27;8.77;;;;;;;;;;5034014;28;20053;-70
2021/07/23 06:51:34;;;;;;;14.43;9.40;;;;;;;;;;5032587;28;20100;-70
2021/07/23 06:54:00;;;;;;;15.05;9.63;;;;;;;;;;5033821;28;20116;-69
2021/07/23 06:56:26;;;;;;;14.70;9.55;;;;;;;;;;5033042;28;20061;-69
2021/07/23 06:58:52;;;;;;;13.77;9.10;;;;;;;;;;5033469;28;20040;-69
2021/07/23 07:01:19;;;;;;;18.00;8.77;;;;;;;;;;5032404;28;20038;-70
2021/07/23 07:03:45;;;;;;;13.15;8.50;;;;;;;;;;5033560;28;20041;-70
2021/07/23 07:06:11;;;;;;;21.08;9.23;;;;;;;;;;5033961;28;20029;-70
2021/07/23 07:08:37;;;;;;;15.32;9.13;;;;;;;;;;5033609;28;20036;-70
2021/07/23 07:11:04;;;;;;;16.45;9.32;;;;;;;;;;5032370;28;20022;-71
2021/07/23 07:13:30;;;;;;;18.98;10.93;;;;;;;;;;5032207;28;20021;-70
2021/07/23 07:15:56;;;;;;;15.45;9.45;;;;;;;;;;5033566;28;20036;-71
2021/07/23 07:18:23;;;;;;;10.80;8.50;;;;;;;;;;5033481;28;20055;-70
2021/07/23 07:20:49;;;;;;;15.70;9.20;;;;;;;;;;5033378;28;20063;-69
2021/07/23 07:23:15;;;;;;;21.02;9.85;;;;;;;;;;5031985;28;20047;-66
2021/07/23 07:25:41;;;;;;;12.15;8.77;;;;;;;;;;5031712;28;20417;-68
2021/07/23 07:28:07;;;;;;;14.07;8.50;;;;;;;;;;5033247;28;20073;-66
2021/07/23 07:30:33;;;;;;;13.38;8.50;;;;;;;;;;5031951;28;20374;-69
2021/07/23 07:33:00;;;;;;;12.55;8.32;;;;;;;;;;5033276;28;20168;-70
2021/07/23 07:35:27;;;;;;;12.68;8.52;;;;;;;;;;5041941;28;20037;-68
2021/07/23 07:37:53;;;;;;;15.43;8.63;;;;;;;;;;5053346;28;20123;-68
2021/07/23 07:40:19;;;;;;;16.77;8.20;;;;;;;;;;5051752;28;20044;-67
2021/07/23 07:42:45;;;;;;;12.88;8.65;;;;;;;;;;5053004;28;20025;-66
2021/07/23 07:45:12;;;;;;;11.73;9.07;;;;;;;;;;5053152;28;20542;-68
2021/07/23 07:47:38;;;;;;;17.17;9.25;;;;;;;;;;5052267;28;20021;-69
2021/07/23 07:50:05;;;;;;;13.85;8.75;;;;;;;;;;5052703;28;20104;-69
2021/07/23 07:52:31;;;;;;;13.68;8.55;;;;;;;;;;5051625;28;20112;-69
2021/07/23 07:54:57;;;;;;;18.42;9.18;;;;;;;;;;5052908;28;20033;-68
2021/07/23 07:57:23;;;;;;;11.73;8.32;;;;;;;;;;5053268;28;20396;-67
2021/07/23 07:59:50;;;;;;;13.63;8.82;;;;;;;;;;5059317;28;20111;-70
2021/07/23 08:02:17;;;;;;;21.10;10.23;;;;;;;;;;5058168;28;20376;-69
2021/07/23 08:04:43;;;;;;;13.15;8.50;;;;;;;;;;5059324;28;20385;-70
2021/07/23 08:07:11;;;;;;;14.90;9.00;;;;;;;;;;5059421;28;20021;-70
2021/07/23 08:09:53;;;;;;;13.93;8.50;;;;;;;;;;5059298;28;20025;-70
2021/07/23 08:12:20;;;;;;;13.40;8.35;;;;;;;;;;5059352;28;20075;-71
2021/07/23 08:14:46;;;;;;;15.15;9.18;;;;;;;;;;5059424;28;20059;-70
2021/07/23 08:17:13;;;;;;;12.95;8.82;;;;;;;;;;5059347;28;20033;-70
2021/07/23 08:19:39;;;;;;;16.92;9.77;;;;;;;;;;5059376;28;20020;-70
2021/07/23 08:22:05;;;;;;;13.75;8.75;;;;;;;;;;5059569;28;20104;-70
2021/07/23 08:24:32;;;;;;;12.10;7.93;;;;;;;;;;5059329;28;20051;-70
2021/07/23 08:26:59;;;;;;;14.80;8.38;;;;;;;;;;5057731;28;20102;-71
2021/07/23 08:29:25;;;;;;;11.70;9.02;;;;;;;;;;5059118;28;20043;-70
2021/07/23 08:31:51;;;;;;;14.60;8.48;;;;;;;;;;5059554;28;20028;-70
2021/07/23 08:34:18;;;;;;;11.23;8.05;;;;;;;;;;5058969;28;20043;-70
2021/07/23 08:36:44;;;;;;;14.05;8.18;;;;;;;;;;5059225;28;20035;-70
2021/07/23 08:39:10;;;;;;;11.07;8.05;;;;;;;;;;5058936;28;20053;-70
2021/07/23 08:41:37;;;;;;;26.85;9.48;;;;;;;;;;5059311;28;20108;-70
2021/07/23 08:44:03;;;;;;;15.35;8.77;;;;;;;;;;5059104;28;20473;-70
2021/07/23 08:46:31;;;;;;;13.80;9.07;;;;;;;;;;5058939;28;20489;-70
2021/07/23 08:48:58;;;;;;;12.57;8.85;;;;;;;;;;5059146;28;20033;-70
2021/07/23 08:51:24;;;;;;;19.00;9.50;;;;;;;;;;5059149;28;20364;-70
2021/07/23 08:53:51;;;;;;;14.70;9.13;;;;;;;;;;5057719;28;20040;-69
2021/07/23 08:56:17;;;;;;;12.98;7.78;;;;;;;;;;5059130;28;20104;-70
2021/07/23 08:58:43;;;;;;;12.48;7.70;;;;;;;;;;5058899;28;20037;-69
2021/07/23 09:01:09;;;;;;;11.77;7.45;;;;;;;;;;5057573;28;20108;-69
2021/07/23 09:03:36;;;;;;;14.60;7.68;;;;;;;;;;5058870;28;20580;-69
2021/07/23 09:06:18;;;;;;;13.32;8.02;;;;;;;;;;5058985;28;20033;-69
2021/07/23 09:08:52;;;;;;;10.57;7.07;;;;;;;;;;5058555;28;20100;-69
2021/07/23 09:11:28;;;;;;;9.45;6.57;;;;;;;;;;5055405;28;20477;-69
2021/07/23 09:14:11;;;;;;;9.05;6.00;;;;;;;;;;5055669;28;20401;-70
2021/07/23 09:16:37;;;;;;;7.97;6.32;;;;;;;;;;5055750;28;20370;-69
2021/07/23 09:19:10;;;;;;;12.55;5.95;;;;;;;;;;5055604;28;20037;-69
2021/07/23 09:21:37;;;;;;;9.35;6.90;;;;;;;;;;5055490;28;20025;-70
2021/07/23 09:24:04;;;;;;;9.25;6.60;;;;;;;;;;5055429;28;20037;-69
2021/07/23 09:26:40;;;;;;;11.88;6.65;;;;;;;;;;5055493;28;20017;-69
2021/07/23 09:29:07;;;;;;;11.48;6.82;;;;;;;;;;5055374;28;20041;-69
2021/07/23 09:31:33;;;;;;;11.20;8.13;;;;;;;;;;5055332;28;20071;-70
2021/07/23 09:34:00;;;;;;;12.00;7.80;;;;;;;;;;5054725;28;20669;-69
2021/07/23 09:36:26;;;;;;;9.38;6.82;;;;;;;;;;5055097;28;20029;-70
2021/07/23 09:39:01;;;;;;;14.80;7.15;;;;;;;;;;5053081;28;20116;-70
2021/07/23 09:41:27;;;;;;;11.05;7.28;;;;;;;;;;5054946;28;20068;-69
2021/07/23 09:44:01;;;;;;;10.05;7.30;;;;;;;;;;5055044;28;20044;-69
2021/07/23 09:46:28;;;;;;;7.68;6.03;;;;;;;;;;5055157;28;20021;-69
2021/07/23 09:48:55;;;;;;;12.07;5.97;;;;;;;;;;5054712;28;20013;-69
2021/07/23 09:51:24;;;;;;;8.70;6.00;;;;;;;;;;5054507;28;20060;-69
2021/07/23 09:53:50;;;;;;;10.02;6.70;;;;;;;;;;5054886;28;20029;-69
2021/07/23 09:56:17;;;;;;;9.90;6.20;;;;;;;;;;5054625;28;20358;-68
2021/07/23 09:58:45;;;;;;;6.45;5.78;;;;;;;;;;5054925;28;20111;-69
2021/07/23 10:01:14;;;;;;;7.72;6.45;;;;;;;;;;5054926;28;20045;-68
2021/07/23 10:03:43;;;;;;;9.57;6.57;;;;;;;;;;5054462;28;20112;-68
2021/07/23 10:06:11;;;;;;;7.40;5.97;;;;;;;;;;5054788;28;20021;-69
2021/07/23 10:08:40;;;;;;;11.48;7.70;;;;;;;;;;5054729;28;20105;-69
2021/07/23 10:11:10;;;;;;;11.75;7.30;;;;;;;;;;5054442;28;20493;-69
2021/07/23 10:13:39;;;;;;;11.77;7.45;;;;;;;;;;5054302;28;20108;-69
2021/07/23 10:16:06;;;;;;;9.27;6.53;;;;;;;;;;5054495;28;20025;-69
2021/07/23 10:18:37;;;;;;;12.90;6.03;;;;;;;;;;5054468;28;20025;-69
2021/07/23 10:21:04;;;;;;;9.15;6.85;;;;;;;;;;5052445;28;20021;-69
2021/07/23 10:23:31;;;;;;;15.50;9.45;;;;;;;;;;5053937;28;20116;-69
2021/07/23 10:25:58;;;;;;;10.38;7.13;;;;;;;;;;5053293;28;20032;-69
2021/07/23 10:28:36;;;;;;;12.57;7.00;;;;;;;;;;5053399;28;20049;-68
2021/07/23 10:31:27;;;;;;;10.02;7.20;;;31.50;58.80;;;;;;5054001;28;20462;-69
2021/07/23 10:33:56;;;;;;;15.23;8.68;;;32.00;61.10;;;;;;5052840;28;20500;-69
2021/07/23 10:36:31;;;;;;;9.95;8.05;;;32.20;59.80;;;;;;5048175;28;20031;-69
2021/07/23 10:39:19;;;;;;;8.98;7.13;;;32.20;56.70;;;;;;5033721;28;20033;-69
2021/07/23 10:41:51;;;;;;;8.65;7.20;;;32.10;61.10;;;;;;5032827;28;20025;-68
2021/07/23 10:44:29;;;;;;;10.05;6.65;;;;;;;;;;5033842;28;20474;-68
2021/07/23 10:46:56;;;;;;;8.85;6.95;;;;;;;;;;5033762;28;20033;-68
2021/07/23 10:49:30;;;;;;;8.23;6.85;;;31.30;61.10;;;;;;5032654;28;20025;-69
2021/07/23 10:51:58;;;;;;;7.47;6.75;;;31.90;62.00;;;;;;5033757;28;20458;-69
2021/07/23 10:54:26;;;;;;;8.48;7.18;;;32.70;60.30;;;;;;5033759;28;20107;-66
2021/07/23 10:57:00;;;;;;;9.32;7.03;;;33.20;60.10;;;;;;5034912;28;20025;-66
2021/07/23 10:59:41;;;;;;;8.57;6.70;;;34.10;57.40;;;;;;5051069;28;20025;-66
2021/07/23 11:02:27;;;;;;;10.35;7.22;;;34.70;56.30;;;;;;5053536;28;20040;-70
2021/07/23 11:05:06;;;;;;;8.20;6.35;;;35.40;54.60;;;;;;5053271;28;20075;-69
2021/07/23 11:07:32;;;;;;;13.82;9.13;;;36.20;53.10;;;;;;5053437;28;20075;-68
2021/07/23 11:09:58;;;;;;;9.68;8.40;;;36.60;50.70;;;;;;5053668;28;20075;-69
2021/07/23 11:12:31;;;;;;;9.77;6.38;;;36.40;50.70;;;;;;5053232;28;20031;-67
2021/07/23 11:14:59;;;;;;;10.45;8.25;;;36.10;51.30;;;;;;5053320;28;20115;-68
2021/07/23 11:17:26;;;;;;;12.77;9.32;;;;;;;;;;5053308;28;20366;-68
2021/07/23 11:19:55;;;;;;;12.30;7.65;;;;;;;;;;5053247;28;20029;-67
2021/07/23 11:22:26;;;;;;;12.90;7.68;;;;;;;;;;5053057;28;20053;-66
2021/07/23 11:24:59;;;;;;;12.32;8.77;;;;;;;;;;5053148;28;20033;-68
2021/07/23 11:27:34;;;;;;;7.95;7.15;;;33.20;56.20;;;;;;5052980;28;20053;-65
2021/07/23 11:30:15;;;;;;;11.38;7.07;;;34.00;56.10;;;;;;5053168;28;20028;-67
2021/07/23 11:33:07;;;;;;;;;;;34.40;55.20;;;;;;5051379;28;20029;-66
2021/07/23 11:35:40;;;;;;;7.60;6.90;;;35.30;50.60;;;;;;5048971;28;19912;-68
2021/07/23 11:38:12;;;;;;;11.50;7.63;;;35.70;49.10;;;;;;5040307;28;20047;-68
2021/07/23 11:40:38;;;;;;;8.10;7.13;;;35.60;51.80;;;;;;5032567;28;20029;-67
2021/07/23 11:43:04;;;;;;;10.32;6.95;;;35.50;48.70;;;;;;5032503;28;20029;-66
2021/07/23 11:45:35;;;;;;;11.30;7.47;;;36.80;49.50;;;;;;5032948;28;20101;-66
2021/07/23 11:48:13;;;;;;;;;;;37.40;49.00;;;;;;5032019;28;20488;-68
2021/07/23 11:51:00;;;;;;;10.98;7.80;;;38.10;49.50;;;;;;5033031;28;19905;-67
2021/07/23 11:53:26;;;;;;;8.60;7.70;;;38.50;49.40;;;;;;5032751;28;20115;-68
2021/07/23 11:55:53;;;;;;;8.10;6.82;;;38.50;46.70;;;;;;5033118;28;20048;-68
2021/07/23 11:58:30;;;;;;;12.18;7.47;;;38.90;47.60;;;;;;5033331;28;20025;-67
2021/07/23 12:00:56;;;;;;;7.93;7.03;;;39.30;46.00;;;;;;5033011;28;20034;-66
2021/07/23 12:03:25;;;;;;;51.15;31.90;;;39.50;47.70;;;;;;5032913;28;20041;-66
2021/07/23 12:05:51;;;;;;;13.85;9.52;;;40.20;47.70;;;;;;5032784;28;20057;-68
2021/07/23 12:08:17;;;;;;;9.95;7.38;;;40.00;47.90;;;;;;5032692;28;20022;-68
2021/07/23 12:10:45;;;;;;;11.55;8.25;;;39.90;46.90;;;;;;5032805;28;20040;-66
2021/07/23 12:13:13;;;;;;;10.13;6.78;;;39.30;48.10;;;;;;5031469;28;20079;-66
2021/07/23 12:15:57;;;;;;;12.02;8.45;;;39.60;46.60;;;;;;5033083;28;20055;-69
2021/07/23 12:18:24;;;;;;;14.02;8.80;;;39.70;47.30;;;;;;5031416;28;20505;-67
2021/07/23 12:20:51;;;;;;;13.32;8.65;;;;;;;;;;5032675;28;20056;-66
2021/07/23 12:23:25;;;;;;;12.20;7.30;;;37.80;46.60;;;;;;5031267;28;20021;-68
2021/07/23 12:26:00;;;;;;;8.77;6.72;;;38.90;48.50;;;;;;5032604;28;20067;-67
2021/07/23 12:28:26;;;;;;;10.10;7.40;;;38.30;46.10;;;;;;5032361;28;20064;-69
2021/07/23 12:30:53;;;;;;;21.55;11.60;;;38.00;49.10;;;;;;5031182;28;20557;-69
2021/07/23 12:33:25;;;;;;;18.45;9.68;;;;;;;;;;5031411;28;20032;-69
2021/07/23 12:35:57;;;;;;;24.88;11.90;;;;;;;;;;5032101;28;20032;-69
2021/07/23 12:38:25;;;;;;;54.45;29.92;;;;;;;;;;5029882;28;20053;-69
2021/07/23 12:41:02;;;;;;;21.55;13.05;;;36.70;49.80;;;;;;5032540;28;20017;-69
2021/07/23 12:43:33;;;;;;;26.80;13.82;;;36.90;49.60;;;;;;5032534;28;20466;-69
2021/07/23 12:46:00;;;;;;;32.60;14.98;;;;;;;;;;5036346;28;20450;-69
2021/07/23 12:48:34;;;;;;;24.02;12.20;;;37.20;50.20;;;;;;5036278;28;20044;-69
2021/07/23 12:51:09;;;;;;;25.17;14.85;;;37.30;49.50;;;;;;5036316;28;20030;-69
2021/07/23 12:53:35;;;;;;;29.63;16.50;;;37.80;50.80;;;;;;5035994;28;20060;-69
2021/07/23 12:56:04;;;;;;;37.60;20.77;;;;;;;;;;5036177;28;20524;-69
2021/07/23 12:58:43;;;;;;;13.48;10.05;;;;;;;;;;5036083;28;20055;-69
2021/07/23 13:01:10;;;;;;;20.33;12.73;;;;;;;;;;5034801;28;20421;-69
2021/07/23 13:03:36;;;;;;;19.42;12.35;;;;;;;;;;5034652;28;20041;-69
2021/07/23 13:06:03;;;;;;;19.08;12.35;;;;;;;;;;5034587;28;20032;-69
2021/07/23 13:08:29;;;;;;;17.13;12.90;;;;;;;;;;5035924;28;20032;-69
2021/07/23 13:10:56;;;;;;;11.93;9.82;;;;;;;;;;5035755;28;20108;-70
2021/07/23 13:13:22;;;;;;;26.17;15.82;;;37.00;51.00;;;;;;5036098;28;20037;-70
2021/07/23 13:15:48;;;;;;;38.70;22.30;;;38.50;50.20;;;;;;5035766;28;20029;-70
2021/07/23 13:18:14;;;;;;;35.47;18.70;;;39.90;46.10;;;;;;5035726;28;20051;-70
2021/07/23 13:20:40;;;;;;;41.60;21.67;;;40.90;45.70;;;;;;5034285;28;20029;-70
2021/07/23 13:23:06;;;;;;;44.67;23.92;;;41.70;45.30;;;;;;5035320;28;20040;-70
2021/07/23 13:25:35;;;;;;;38.47;20.08;;;42.30;44.40;;;;;;5034138;28;20041;-70
2021/07/23 13:28:03;;;;;;;22.95;13.80;;;42.70;43.90;;;;;;5033875;28;20069;-70
2021/07/23 13:30:29;;;;;;;27.30;14.90;;;42.90;42.50;;;;;;5034353;28;20026;-70
2021/07/23 13:32:55;;;;;;;21.88;13.35;;;;;;;;;;5035421;28;20040;-70
2021/07/23 13:35:21;;;;;;;25.00;13.95;;;;;;;;;;5035379;28;20028;-70
2021/07/23 13:37:51;;;;;;;16.90;12.43;;;;;;;;;;5035684;28;20031;-70
2021/07/23 13:40:21;;;;;;;15.00;8.68;;;;;;;;;;5035340;28;20044;-70
2021/07/23 13:42:48;;;;;;;10.93;7.68;;;;;;;;;;5035585;28;20543;-70
2021/07/23 13:45:15;;;;;;;16.38;10.48;;;43.50;41.70;;;;;;5035184;28;20120;-70
2021/07/23 13:47:42;;;;;;;37.05;20.80;;;44.20;40.80;;;;;;5035313;28;20021;-68
2021/07/23 13:50:11;;;;;;;19.95;13.27;;;;;;;;;;5033821;28;20028;-68
2021/07/23 13:52:37;;;;;;;19.05;9.95;;;;;;;;;;5035064;28;20021;-69
2021/07/23 13:55:04;;;;;;;18.77;13.05;;;;;;;;;;5034842;28;20032;-68
2021/07/23 13:57:30;;;;;;;24.75;18.00;;;;;;;;;;5034398;28;20057;-70
2021/07/23 13:59:59;;;;;;;43.33;28.23;;;;;;;;;;5034737;28;20025;-71
2021/07/23 14:02:25;;;;;;;30.98;17.70;;;;;;;;;;5040985;28;20071;-70
2021/07/23 14:04:52;;;;;;;23.42;14.77;;;;;;;;;;5053254;28;20029;-70
2021/07/23 14:07:18;;;;;;;16.23;11.10;;;;;;;;;;5053337;28;20044;-70